createdAt,value
2022-12-16T06:02:47.017Z,1.48
2022-12-16T06:08:09.931Z,1.58
2022-12-16T06:13:31.294Z,2.17
2022-12-16T06:18:53.350Z,1.87
2022-12-16T06:24:14.457Z,1.83
2022-12-16T06:29:35.648Z,1.90
2022-12-16T06:34:57.942Z,1.75
2022-12-16T06:40:19.004Z,1.83
2022-12-16T06:45:40.493Z,1.80
2022-12-16T06:51:03.281Z,1.52
2022-12-16T06:56:25.143Z,1.52
2022-12-16T07:01:55.198Z,1.70
2022-12-16T07:07:17.792Z,1.83
2022-12-16T07:12:38.956Z,1.90
2022-12-16T07:18:00.096Z,1.60
2022-12-16T07:23:22.352Z,1.80
2022-12-16T07:28:43.786Z,2.45
2022-12-16T07:34:04.920Z,2.00
2022-12-16T07:39:27.526Z,1.80
2022-12-16T07:44:48.796Z,2.28
2022-12-16T07:50:09.935Z,1.37
2022-12-16T07:55:32.621Z,1.87
2022-12-16T08:00:53.959Z,1.83
2022-12-16T08:06:16.914Z,1.80
2022-12-16T08:11:39.370Z,2.08
2022-12-16T08:17:12.389Z,1.92
2022-12-16T08:22:33.883Z,2.55
2022-12-16T08:27:55.992Z,2.53
2022-12-16T08:33:19.525Z,1.55
2022-12-16T08:38:49.520Z,1.95
2022-12-16T08:44:14.531Z,2.28
2022-12-16T08:49:35.648Z,2.12
2022-12-16T08:54:56.904Z,1.87
2022-12-16T09:00:19.343Z,2.20
2022-12-16T09:05:40.452Z,3.05
2022-12-16T09:11:01.683Z,2.90
2022-12-16T09:16:24.894Z,2.95
2022-12-16T09:21:45.935Z,3.42
2022-12-16T09:27:07.184Z,2.85
2022-12-16T09:32:29.784Z,3.35
2022-12-16T09:37:50.911Z,4.00
2022-12-16T09:43:19.118Z,3.95
2022-12-16T09:48:52.213Z,3.42
2022-12-16T09:54:23.984Z,3.80
2022-12-16T09:59:51.014Z,4.00
2022-12-16T10:05:13.512Z,4.07
2022-12-16T10:10:41.301Z,2.87
2022-12-16T10:16:08.281Z,2.78
2022-12-16T10:21:37.476Z,2.72
2022-12-16T10:27:08.678Z,2.12
2022-12-16T10:32:36.701Z,2.08
2022-12-16T10:38:00.866Z,1.90
2022-12-16T10:43:30.137Z,1.90
2022-12-16T10:48:56.607Z,2.03
2022-12-16T10:54:39.042Z,1.87
2022-12-16T11:00:00.200Z,1.70
2022-12-16T11:05:39.061Z,1.65
2022-12-16T11:11:02.635Z,1.70
2022-12-16T11:16:33.472Z,1.50
2022-12-16T11:21:54.723Z,1.85
2022-12-16T11:27:18.646Z,1.83
2022-12-16T11:32:43.801Z,1.33
2022-12-16T11:38:07.686Z,1.20
2022-12-16T11:43:33.701Z,1.42
2022-12-16T11:54:22.657Z,1.73
2022-12-16T11:59:51.283Z,1.10
2022-12-16T12:05:12.422Z,1.00
2022-12-16T12:10:53.918Z,1.12
2022-12-16T12:16:29.032Z,1.00
2022-12-16T12:21:58.362Z,0.95
2022-12-16T12:27:26.423Z,1.33
2022-12-16T12:32:57.835Z,1.00
2022-12-16T12:38:24.901Z,0.95
2022-12-16T12:43:57.456Z,1.20
2022-12-16T12:49:28.719Z,1.00
2022-12-16T12:54:56.515Z,1.30
2022-12-16T13:00:21.958Z,0.80
2022-12-16T13:05:53.435Z,0.60
2022-12-16T13:11:34.982Z,0.80
2022-12-16T13:17:25.838Z,0.60
2022-12-16T13:22:50.946Z,0.55
2022-12-16T13:33:49.323Z,0.50
2022-12-16T13:45:17.737Z,0.60
2022-12-16T13:50:59.577Z,0.70
2022-12-16T13:56:23.152Z,0.40
2022-12-16T14:01:52.768Z,0.77
2022-12-16T14:07:24.454Z,0.50
2022-12-16T14:13:08.845Z,0.98
2022-12-16T14:18:43.906Z,0.62
2022-12-16T14:24:11.965Z,0.57
2022-12-16T14:29:39.953Z,0.60
2022-12-16T14:35:02.470Z,0.50
2022-12-16T14:40:45.922Z,0.73
2022-12-16T14:46:08.269Z,0.62
2022-12-16T14:51:42.256Z,0.57
2022-12-16T14:57:03.564Z,0.50
2022-12-16T15:02:37.336Z,0.80
2022-12-16T15:08:00.119Z,0.32
2022-12-16T15:13:21.209Z,0.40
2022-12-16T15:18:46.094Z,0.70
2022-12-16T15:24:09.496Z,0.43
2022-12-16T15:29:47.239Z,0.45
2022-12-16T15:35:08.339Z,0.57
2022-12-16T15:40:43.796Z,0.30
2022-12-16T15:46:07.916Z,0.50
2022-12-16T15:51:47.503Z,0.60
2022-12-16T15:57:09.842Z,0.50
2022-12-16T16:02:36.001Z,0.70
2022-12-16T16:08:02.028Z,0.70
2022-12-16T16:13:26.488Z,0.88
2022-12-16T16:18:47.592Z,1.33
2022-12-16T16:24:08.944Z,0.93
2022-12-16T16:29:31.311Z,0.98
2022-12-16T16:34:58.048Z,0.80
2022-12-16T16:40:19.331Z,1.23
2022-12-16T16:45:42.031Z,1.73
2022-12-16T16:51:03.213Z,1.83
2022-12-16T16:56:24.901Z,1.40
2022-12-16T17:01:47.334Z,1.20
2022-12-16T17:07:08.495Z,1.52
2022-12-16T17:12:38.164Z,1.30
2022-12-16T17:18:00.688Z,1.48
2022-12-16T17:23:22.400Z,1.10
2022-12-16T17:28:43.752Z,1.30
2022-12-16T17:34:06.276Z,1.15
2022-12-16T17:39:29.532Z,1.60
2022-12-16T17:44:51.182Z,1.35
2022-12-16T17:50:13.840Z,1.40
2022-12-16T17:55:34.810Z,1.73
2022-12-16T18:00:56.176Z,1.17
2022-12-16T18:06:18.426Z,2.00
2022-12-16T18:11:39.652Z,1.70
2022-12-16T18:17:00.901Z,1.75
2022-12-16T18:22:23.085Z,2.40
2022-12-16T18:27:44.428Z,2.40
2022-12-16T18:33:05.662Z,2.28
2022-12-16T18:38:28.100Z,2.03
2022-12-16T18:43:49.231Z,2.10
2022-12-16T18:49:10.569Z,2.67
2022-12-16T18:54:33.290Z,3.05
2022-12-16T18:59:54.374Z,2.67
2022-12-16T19:05:17.768Z,2.83
2022-12-16T19:10:39.981Z,3.62
2022-12-16T19:16:01.364Z,5.55
2022-12-16T19:21:22.785Z,5.53
2022-12-16T19:26:45.332Z,4.60
2022-12-16T19:32:06.658Z,5.65
2022-12-16T19:37:27.847Z,5.57
2022-12-16T19:42:50.416Z,6.32
2022-12-16T19:48:19.079Z,6.70
2022-12-16T19:53:40.362Z,7.35
2022-12-16T19:59:03.129Z,6.97
2022-12-16T20:04:24.421Z,5.50
2022-12-16T20:09:45.541Z,6.68
2022-12-16T20:15:08.182Z,6.15
2022-12-16T20:20:29.637Z,5.97
2022-12-16T20:25:51.791Z,8.10
2022-12-16T20:31:18.825Z,7.28
2022-12-16T20:36:40.064Z,7.40
2022-12-16T20:42:01.028Z,7.57
2022-12-16T20:47:23.788Z,6.30
2022-12-16T20:52:45.043Z,7.70
2022-12-16T20:58:06.243Z,7.75
2022-12-16T21:03:28.683Z,7.60
2022-12-16T21:08:49.753Z,9.65
2022-12-16T21:14:10.342Z,8.75
2022-12-16T21:19:33.872Z,8.68
2022-12-16T21:24:55.167Z,9.77
2022-12-16T21:30:17.413Z,8.35
2022-12-16T21:35:39.744Z,10.40
2022-12-16T21:41:00.941Z,10.40
2022-12-16T21:46:22.108Z,7.90
2022-12-16T21:51:44.614Z,10.30
2022-12-16T21:57:05.971Z,9.95
2022-12-16T22:02:31.067Z,9.95
2022-12-16T22:07:53.434Z,11.23
2022-12-16T22:13:18.058Z,11.12
2022-12-16T22:18:39.310Z,11.75
2022-12-16T22:24:02.273Z,11.40
2022-12-16T22:29:23.513Z,9.52
2022-12-16T22:34:44.802Z,11.02
2022-12-16T22:40:07.256Z,10.55
2022-12-16T22:45:28.760Z,10.75
2022-12-16T22:50:50.967Z,10.98
2022-12-16T22:56:15.308Z,11.10
2022-12-16T23:01:36.808Z,10.97
2022-12-16T23:06:58.122Z,11.15
2022-12-16T23:12:20.446Z,12.23
2022-12-16T23:17:41.636Z,11.05
2022-12-16T23:23:03.095Z,12.35
2022-12-16T23:28:25.362Z,12.10
